Time;durP1;ratioP1;P1;durP2;ratioP2;P2;SDS_P1;SDS_P2;PMS_P1;PMS_P2;Temp;Humidity;BMP_temperature;BMP_pressure;BME280_temperature;BME280_humidity;BME280_pressure;Samples;Min_cycle;Max_cycle;Signal;HPM_P1;HPM_P2
2023/06/19 03:59:36;;;;;;;2.35;2.25;;;18.70;99.90;;;;;;5895609;23;20269;-69
2023/06/19 04:02:04;;;;;;;2.22;2.22;;;18.70;99.90;;;;;;4975563;28;20233;-68
2023/06/19 04:04:31;;;;;;;2.08;2.05;;;18.70;99.90;;;;;;4976115;28;20218;-68
2023/06/19 04:06:58;;;;;;;1.90;1.90;;;18.60;99.90;;;;;;4976080;28;20666;-68
2023/06/19 04:09:25;;;;;;;1.90;1.80;;;18.60;99.90;;;;;;4976299;28;20317;-68
2023/06/19 04:11:52;;;;;;;1.70;1.70;;;18.60;99.90;;;;;;4976262;28;20195;-68
2023/06/19 04:14:19;;;;;;;2.35;1.90;;;18.60;99.90;;;;;;4976503;28;20685;-68
2023/06/19 04:16:45;;;;;;;1.95;1.85;;;18.60;99.90;;;;;;4975607;28;20214;-69
2023/06/19 04:19:13;;;;;;;2.15;2.05;;;18.60;99.90;;;;;;4974294;28;20590;-69
2023/06/19 04:21:41;;;;;;;2.08;2.03;;;18.60;99.90;;;;;;4975460;28;20210;-69
2023/06/19 04:24:08;;;;;;;1.70;1.70;;;18.60;99.90;;;;;;4974939;28;20206;-69
2023/06/19 04:26:36;;;;;;;1.80;1.80;;;18.70;99.90;;;;;;4975555;28;20245;-71
2023/06/19 04:29:03;;;;;;;2.03;1.92;;;18.70;99.90;;;;;;4975577;28;20257;-71
2023/06/19 04:31:30;;;;;;;1.90;1.80;;;18.70;99.90;;;;;;4975159;28;20667;-71
2023/06/19 04:33:57;;;;;;;2.20;2.10;;;18.80;99.90;;;;;;4975646;28;20202;-71
2023/06/19 04:36:25;;;;;;;2.20;2.10;;;18.90;99.90;;;;;;4975281;28;20210;-70
2023/06/19 04:38:52;;;;;;;1.90;1.90;;;19.00;99.90;;;;;;4974806;28;20226;-70
2023/06/19 04:41:18;;;;;;;1.63;1.63;;;19.10;99.90;;;;;;4975101;28;20234;-69
2023/06/19 04:43:45;;;;;;;2.03;1.90;;;19.10;99.90;;;;;;4974878;28;20277;-70
2023/06/19 04:46:12;;;;;;;1.75;1.65;;;19.10;99.90;;;;;;4975143;28;20210;-70
2023/06/19 04:48:39;;;;;;;1.70;1.70;;;19.10;99.90;;;;;;4974544;28;20203;-70
2023/06/19 04:51:06;;;;;;;2.25;2.20;;;19.10;99.90;;;;;;4975186;28;20203;-69
2023/06/19 04:53:34;;;;;;;1.83;1.83;;;19.10;99.90;;;;;;4975582;28;20199;-67
2023/06/19 04:56:00;;;;;;;2.15;2.15;;;19.10;99.90;;;;;;4977364;28;20206;-66
2023/06/19 04:58:28;;;;;;;2.47;2.30;;;19.00;99.90;;;;;;4979333;28;20202;-66
2023/06/19 05:00:54;;;;;;;3.38;3.17;;;19.00;99.90;;;;;;4979067;28;20291;-66
2023/06/19 05:03:21;;;;;;;3.22;3.03;;;19.00;99.90;;;;;;4978561;28;20237;-67
2023/06/19 05:05:48;;;;;;;3.00;2.80;;;19.10;99.90;;;;;;4978928;28;20198;-67
2023/06/19 05:08:15;;;;;;;3.38;3.20;;;19.10;99.90;;;;;;4974794;28;20203;-66
2023/06/19 05:10:43;;;;;;;2.35;2.25;;;19.20;99.90;;;;;;4974500;28;20234;-67
2023/06/19 09:59:56;;;;;;;4.35;4.05;;;28.50;49.20;;;;;;5205822;23;20266;-70
2023/06/19 10:02:23;;;;;;;4.78;4.40;;;28.60;48.20;;;;;;4973749;28;20637;-70
2023/06/19 10:04:52;;;;;;;4.15;3.95;;;28.50;48.40;;;;;;4974059;28;20203;-70
2023/06/19 10:07:20;;;;;;;3.88;3.67;;;28.50;49.40;;;;;;4974207;28;20207;-70
2023/06/19 10:10:01;;;;;;;4.30;4.03;;;28.60;50.40;;;;;;4974000;28;20571;-70
2023/06/19 10:12:39;;;;;;;4.47;4.05;;;28.60;47.50;;;;;;4975261;28;20186;-67
2023/06/19 10:15:18;;;;;;;3.90;3.60;;;28.60;49.30;;;;;;4973974;28;20285;-67
2023/06/19 10:17:48;;;;;;;3.95;3.67;;;28.50;49.10;;;;;;4975745;28;20187;-67
2023/06/19 10:20:23;;;;;;;6.13;4.07;;;28.50;48.70;;;;;;4977708;28;20226;-67
2023/06/19 10:22:57;;;;;;;3.53;3.40;;;28.60;48.80;;;;;;4977883;28;20221;-68
2023/06/19 10:25:24;;;;;;;4.00;3.70;;;28.80;48.30;;;;;;4977387;28;20560;-68
2023/06/19 10:27:52;;;;;;;3.60;3.40;;;29.00;47.70;;;;;;4977205;28;20693;-68
2023/06/19 10:30:21;;;;;;;4.60;4.30;;;28.90;45.80;;;;;;4977361;28;20238;-68
2023/06/19 10:32:49;;;;;;;4.30;4.10;;;28.70;47.20;;;;;;4977324;28;20210;-68
2023/06/19 10:35:21;;;;;;;3.78;3.58;;;28.80;47.80;;;;;;4977476;28;20206;-68
2023/06/19 10:37:48;;;;;;;3.80;3.60;;;28.80;47.20;;;;;;4977202;28;20278;-68
2023/06/19 10:40:15;;;;;;;4.53;4.13;;;29.00;46.50;;;;;;4977382;28;20257;-68
2023/06/19 10:42:42;;;;;;;3.78;3.58;;;29.10;46.50;;;;;;4976945;28;20222;-68
2023/06/19 10:45:11;;;;;;;3.90;3.70;;;29.20;44.30;;;;;;4977126;28;20203;-69
2023/06/19 10:47:41;;;;;;;4.00;3.67;;;29.20;45.20;;;;;;4976945;28;20203;-69
2023/06/19 10:50:11;;;;;;;4.38;4.13;;;29.20;45.10;;;;;;4976664;28;20254;-70
2023/06/19 10:52:41;;;;;;;4.30;4.00;;;29.10;43.90;;;;;;4978519;28;20194;-69
2023/06/19 10:55:08;;;;;;;3.75;3.55;;;28.90;44.70;;;;;;4976822;28;20253;-69
2023/06/19 10:57:35;;;;;;;4.30;3.90;;;28.80;46.30;;;;;;4977068;28;20203;-69
2023/06/19 11:00:05;;;;;;;4.90;4.50;;;29.00;46.10;;;;;;4976260;28;20722;-69
2023/06/19 11:02:33;;;;;;;4.63;4.32;;;29.10;45.30;;;;;;4976262;28;20223;-69
2023/06/19 11:05:04;;;;;;;4.13;3.92;;;29.30;45.30;;;;;;4976819;28;20250;-69
2023/06/19 11:07:33;;;;;;;4.07;3.88;;;29.40;44.00;;;;;;4976374;28;20230;-69
2023/06/19 11:09:59;;;;;;;3.60;3.40;;;29.30;44.30;;;;;;4976664;28;20227;-69
2023/06/19 11:12:26;;;;;;;3.88;3.67;;;29.20;43.90;;;;;;4976479;28;20207;-69
2023/06/19 11:14:53;;;;;;;3.63;3.33;;;29.20;44.70;;;;;;4976559;28;20206;-69
2023/06/19 11:17:21;;;;;;;4.05;3.85;;;29.30;44.50;;;;;;4976483;28;20206;-69
2023/06/19 11:19:48;;;;;;;4.32;3.92;;;29.50;44.10;;;;;;4976468;28;20231;-69
2023/06/19 11:22:16;;;;;;;3.45;3.25;;;29.60;44.10;;;;;;4976294;28;20206;-68
2023/06/19 11:24:46;;;;;;;3.72;3.53;;;29.60;43.00;;;;;;4976250;28;20265;-69
2023/06/19 11:27:27;;;;;;;3.78;3.58;;;29.70;41.80;;;;;;4975871;28;20701;-69
2023/06/19 11:29:58;;;;;;;3.58;3.40;;;29.60;41.90;;;;;;4975733;28;20229;-70
2023/06/19 11:32:30;;;;;;;4.03;3.80;;;29.70;42.80;;;;;;4976224;28;20183;-71
2023/06/19 11:34:58;;;;;;;3.53;3.42;;;29.60;42.10;;;;;;4976277;28;20203;-71
2023/06/19 11:37:30;;;;;;;3.50;3.38;;;29.60;42.80;;;;;;4976730;28;20214;-71
2023/06/19 11:39:58;;;;;;;3.83;3.58;;;29.50;42.30;;;;;;4976293;28;20223;-70
2023/06/19 11:42:25;;;;;;;3.35;3.25;;;29.60;43.10;;;;;;4975838;28;20226;-70
2023/06/19 11:44:55;;;;;;;4.45;4.13;;;29.70;42.70;;;;;;4975460;28;20685;-71
2023/06/19 11:47:22;;;;;;;3.53;3.42;;;29.80;41.10;;;;;;4975866;28;20709;-71
2023/06/19 11:49:49;;;;;;;3.38;3.28;;;29.80;41.60;;;;;;4975404;28;20732;-71
2023/06/19 11:52:16;;;;;;;4.03;3.80;;;29.80;40.70;;;;;;4975521;28;20720;-73
2023/06/19 11:54:44;;;;;;;3.85;3.63;;;29.60;42.30;;;;;;4976113;28;20210;-73
2023/06/19 11:57:12;;;;;;;4.55;3.78;;;29.50;42.60;;;;;;4975673;28;20207;-72
2023/06/19 11:59:39;;;;;;;4.38;3.97;;;29.30;42.30;;;;;;4975255;28;20736;-72
2023/06/19 12:02:06;;;;;;;3.75;3.55;;;29.20;43.50;;;;;;4975142;28;20343;-72
2023/06/19 12:04:33;;;;;;;3.28;3.17;;;29.20;42.40;;;;;;4975142;28;20586;-72
2023/06/19 12:07:00;;;;;;;4.28;3.60;;;29.30;42.70;;;;;;4975439;28;20210;-72
2023/06/19 12:09:27;;;;;;;3.53;3.42;;;29.40;42.60;;;;;;4975453;28;20232;-72
2023/06/19 12:11:55;;;;;;;3.65;3.45;;;29.60;42.20;;;;;;4975538;28;20293;-72
2023/06/19 12:14:24;;;;;;;3.90;3.70;;;29.70;41.90;;;;;;4975065;28;20688;-70
2023/06/19 12:16:51;;;;;;;3.20;3.10;;;29.90;41.20;;;;;;4975383;28;20207;-72
2023/06/19 12:19:18;;;;;;;3.45;3.25;;;29.90;40.40;;;;;;4975236;28;20258;-72
2023/06/19 12:21:45;;;;;;;3.88;3.58;;;29.80;39.40;;;;;;4974953;28;20693;-71
2023/06/19 12:24:12;;;;;;;3.42;3.20;;;29.50;39.30;;;;;;4974982;28;20226;-71
2023/06/19 12:26:39;;;;;;;3.67;3.38;;;29.40;40.40;;;;;;4975064;28;20261;-72
2023/06/19 12:29:07;;;;;;;3.63;3.42;;;29.50;40.40;;;;;;4974983;28;20309;-71
2023/06/19 12:31:35;;;;;;;3.58;3.38;;;29.60;39.90;;;;;;4975181;28;20211;-73
2023/06/19 12:34:02;;;;;;;4.45;3.83;;;29.70;39.80;;;;;;4975058;28;20683;-73
2023/06/19 12:36:31;;;;;;;3.88;3.65;;;29.80;39.40;;;;;;4974781;28;20615;-73
2023/06/19 12:38:57;;;;;;;3.53;3.33;;;29.90;39.20;;;;;;4974528;28;20710;-73
2023/06/19 12:41:24;;;;;;;3.85;3.60;;;30.20;37.70;;;;;;4974295;28;20210;-73
2023/06/19 12:43:51;;;;;;;3.38;3.17;;;30.30;37.10;;;;;;4974991;28;20562;-73
2023/06/19 12:46:19;;;;;;;3.60;3.22;;;30.50;36.70;;;;;;4975199;28;20233;-73
2023/06/19 12:48:50;;;;;;;3.47;3.30;;;30.30;35.30;;;;;;4974971;28;20227;-73
2023/06/19 12:51:17;;;;;;;3.60;3.40;;;30.20;37.40;;;;;;4975042;28;20277;-73
2023/06/19 12:53:44;;;;;;;3.35;3.25;;;30.40;36.90;;;;;;4975016;28;20221;-73
2023/06/19 12:56:10;;;;;;;3.63;3.47;;;30.60;37.60;;;;;;4974860;28;20202;-73
2023/06/19 12:58:37;;;;;;;3.47;3.30;;;30.60;36.20;;;;;;4974544;28;20234;-72
2023/06/19 13:01:04;;;;;;;3.67;3.50;;;30.40;36.70;;;;;;4974761;28;20269;-73
2023/06/19 13:03:32;;;;;;;3.90;3.70;;;30.30;37.50;;;;;;4974884;28;20313;-74
2023/06/19 13:05:59;;;;;;;3.72;3.53;;;30.50;37.40;;;;;;4974685;28;20294;-73
2023/06/19 13:08:25;;;;;;;3.47;3.28;;;30.50;37.70;;;;;;4974707;28;20219;-72
2023/06/19 13:10:52;;;;;;;2.97;2.88;;;30.60;36.50;;;;;;4975176;28;20207;-73
2023/06/19 13:13:19;;;;;;;4.38;3.40;;;30.70;36.90;;;;;;4978059;28;20650;-74
2023/06/19 13:15:46;;;;;;;3.83;3.63;;;30.70;36.10;;;;;;4980166;28;20206;-74
2023/06/19 13:18:13;;;;;;;4.28;3.97;;;30.80;36.80;;;;;;4978298;28;20206;-75
2023/06/19 13:20:41;;;;;;;3.53;3.42;;;30.90;36.20;;;;;;4978846;28;20202;-75
2023/06/19 13:23:11;;;;;;;3.40;3.10;;;31.10;36.50;;;;;;4978501;28;20558;-73
2023/06/19 13:25:38;;;;;;;3.53;3.33;;;31.20;36.20;;;;;;4979460;28;20214;-73
2023/06/19 13:28:06;;;;;;;3.97;3.78;;;31.30;35.60;;;;;;4979065;28;20659;-73
2023/06/19 13:30:33;;;;;;;3.50;3.20;;;31.20;35.50;;;;;;4979032;28;20273;-72
2023/06/19 13:33:00;;;;;;;3.78;3.55;;;31.10;34.20;;;;;;4978737;28;20230;-72
2023/06/19 13:35:27;;;;;;;3.97;3.78;;;30.70;34.50;;;;;;4976095;28;20670;-72
2023/06/19 13:37:55;;;;;;;4.20;3.90;;;30.60;34.40;;;;;;4979759;28;20270;-72
2023/06/19 13:40:23;;;;;;;3.40;3.30;;;30.30;36.00;;;;;;4978859;28;20253;-72
2023/06/19 13:42:50;;;;;;;3.65;3.45;;;30.30;36.10;;;;;;4979517;28;20207;-72
2023/06/19 13:45:17;;;;;;;3.05;3.00;;;30.30;36.10;;;;;;4979007;28;20229;-72
2023/06/19 13:47:44;;;;;;;3.88;3.60;;;30.50;36.80;;;;;;4979081;28;20265;-72
2023/06/19 13:50:17;;;;;;;3.70;3.50;;;30.60;36.20;;;;;;4978421;28;20629;-72
2023/06/19 13:52:44;;;;;;;3.42;3.33;;;30.60;36.00;;;;;;4982054;28;20193;-72
2023/06/19 13:55:13;;;;;;;3.78;3.47;;;30.70;36.00;;;;;;4980635;28;20199;-72
2023/06/19 13:57:41;;;;;;;3.35;3.17;;;30.80;35.10;;;;;;4978894;28;20203;-71
2023/06/19 14:00:10;;;;;;;4.32;3.72;;;30.70;35.20;;;;;;4978329;28;20257;-71
2023/06/19 14:02:37;;;;;;;3.67;3.38;;;30.80;35.90;;;;;;4977522;28;20265;-71
2023/06/19 14:05:04;;;;;;;3.80;3.50;;;31.00;36.10;;;;;;4978711;28;20609;-72
2023/06/19 14:07:30;;;;;;;3.67;3.47;;;31.00;35.30;;;;;;4979196;28;20203;-72
2023/06/19 14:09:57;;;;;;;3.30;3.13;;;31.10;35.70;;;;;;4978668;28;20714;-73
2023/06/19 14:12:26;;;;;;;3.20;3.00;;;31.20;36.30;;;;;;4979218;28;20571;-72
2023/06/19 14:14:52;;;;;;;3.72;3.45;;;31.30;35.60;;;;;;4978833;28;20206;-73
2023/06/19 14:17:19;;;;;;;4.53;3.50;;;31.30;34.90;;;;;;4979274;28;20214;-73
2023/06/19 14:19:46;;;;;;;3.47;3.30;;;31.30;35.20;;;;;;4979526;28;20227;-73
2023/06/19 14:22:13;;;;;;;3.50;3.40;;;31.40;35.10;;;;;;4981424;28;20206;-73
2023/06/19 14:24:39;;;;;;;3.72;3.55;;;31.50;35.00;;;;;;4978101;28;20225;-71
2023/06/19 14:27:07;;;;;;;4.05;3.70;;;31.50;35.00;;;;;;4980625;28;20230;-72
2023/06/19 14:29:35;;;;;;;3.15;2.90;;;31.50;35.50;;;;;;4980166;28;20290;-73
2023/06/19 14:32:02;;;;;;;3.95;3.70;;;31.60;35.20;;;;;;4979668;28;20191;-73
2023/06/19 14:34:31;;;;;;;3.40;3.30;;;31.50;35.00;;;;;;4981329;28;20213;-74
2023/06/19 14:36:59;;;;;;;3.80;3.60;;;31.60;35.90;;;;;;4983001;28;20207;-72
2023/06/19 14:39:26;;;;;;;4.05;3.70;;;31.60;36.00;;;;;;4980367;28;20223;-72
2023/06/19 14:41:53;;;;;;;3.75;3.55;;;31.40;35.00;;;;;;4980750;28;20214;-73
2023/06/19 14:44:20;;;;;;;4.00;3.80;;;31.10;36.00;;;;;;4980389;28;20321;-72
2023/06/19 14:46:49;;;;;;;4.45;4.15;;;31.10;35.80;;;;;;4979274;28;20684;-70
2023/06/19 14:49:16;;;;;;;5.15;4.10;;;31.00;36.20;;;;;;4979448;28;20234;-72
2023/06/19 14:51:43;;;;;;;3.75;3.50;;;31.00;36.40;;;;;;4980458;28;20209;-73
2023/06/19 14:54:10;;;;;;;3.97;3.78;;;31.00;35.80;;;;;;4977765;28;20205;-70
2023/06/19 14:56:37;;;;;;;3.60;3.40;;;30.90;35.20;;;;;;4977946;28;20215;-70
2023/06/19 14:59:04;;;;;;;4.20;3.90;;;30.90;35.90;;;;;;4977571;28;20222;-71
2023/06/19 15:01:31;;;;;;;5.63;4.38;;;30.90;36.00;;;;;;4977201;28;20207;-71
2023/06/19 15:03:59;;;;;;;4.25;3.95;;;30.70;35.90;;;;;;4976428;28;20223;-71
2023/06/19 15:06:26;;;;;;;4.30;4.00;;;30.60;36.30;;;;;;4977287;28;20203;-71
2023/06/19 15:08:53;;;;;;;4.00;3.80;;;30.60;36.50;;;;;;4976739;28;20223;-71
2023/06/19 15:11:20;;;;;;;3.83;3.65;;;30.60;36.60;;;;;;4977362;28;20187;-71
2023/06/19 15:13:47;;;;;;;3.65;3.45;;;30.70;36.90;;;;;;4977296;28;20206;-74
2023/06/19 15:16:13;;;;;;;3.63;3.45;;;30.70;36.60;;;;;;4977234;28;20203;-71
2023/06/19 15:18:41;;;;;;;4.07;3.88;;;30.70;35.60;;;;;;4977317;28;20223;-70
2023/06/19 15:21:09;;;;;;;3.50;3.40;;;30.50;35.90;;;;;;4977535;28;20297;-71
2023/06/19 15:23:36;;;;;;;3.60;3.40;;;30.60;37.00;;;;;;4977915;28;20205;-71
2023/06/19 15:26:05;;;;;;;3.85;3.65;;;30.50;37.90;;;;;;4977385;28;20202;-70
2023/06/19 15:28:33;;;;;;;4.03;3.83;;;30.30;37.70;;;;;;4977068;28;20317;-70
2023/06/19 15:31:01;;;;;;;3.72;3.58;;;30.20;37.50;;;;;;4976575;28;20207;-70
2023/06/19 15:33:27;;;;;;;3.60;3.40;;;30.20;37.20;;;;;;4977073;28;20269;-70
2023/06/19 15:35:54;;;;;;;3.55;3.45;;;30.00;37.10;;;;;;4976782;28;20206;-71
2023/06/19 15:38:22;;;;;;;3.63;3.53;;;30.00;36.70;;;;;;4976072;28;20634;-71
2023/06/19 15:40:49;;;;;;;3.90;3.70;;;30.00;36.70;;;;;;4976788;28;20217;-69
2023/06/19 15:43:15;;;;;;;3.70;3.60;;;30.00;37.40;;;;;;4976723;28;20200;-71
2023/06/19 15:45:42;;;;;;;3.00;2.90;;;30.10;37.10;;;;;;4976849;28;20233;-71
2023/06/19 15:48:09;;;;;;;3.40;3.13;;;30.20;37.50;;;;;;4976759;28;20197;-70
2023/06/19 15:50:36;;;;;;;3.70;3.40;;;30.20;36.80;;;;;;4976764;28;20206;-71
2023/06/19 15:53:03;;;;;;;3.40;3.13;;;30.10;35.60;;;;;;4976646;28;20247;-71
2023/06/19 15:55:31;;;;;;;3.63;3.42;;;29.90;35.20;;;;;;4976328;28;20205;-71
2023/06/19 15:57:57;;;;;;;2.47;2.38;;;29.80;36.20;;;;;;4975719;28;20234;-72
2023/06/19 16:00:25;;;;;;;3.20;3.00;;;29.80;35.80;;;;;;4975925;28;20564;-71
2023/06/19 16:02:51;;;;;;;2.97;2.88;;;29.70;36.10;;;;;;4976025;28;20238;-74
2023/06/19 16:05:18;;;;;;;2.90;2.80;;;29.60;36.30;;;;;;4975510;28;20289;-74
2023/06/19 16:07:45;;;;;;;3.05;2.85;;;29.60;37.10;;;;;;4976133;28;20572;-73
2023/06/19 16:10:12;;;;;;;3.20;3.00;;;29.70;37.10;;;;;;4975713;28;20227;-72
2023/06/19 16:12:40;;;;;;;2.85;2.75;;;29.80;36.80;;;;;;4976381;28;20242;-74
2023/06/19 16:15:12;;;;;;;2.72;2.60;;;30.00;36.30;;;;;;4976071;28;20510;-74
2023/06/19 16:17:39;;;;;;;3.50;3.28;;;30.10;35.30;;;;;;4976294;28;20277;-70
2023/06/19 16:20:07;;;;;;;3.05;2.95;;;30.10;35.60;;;;;;4976653;28;20248;-70
2023/06/19 16:22:34;;;;;;;3.10;3.00;;;30.20;35.60;;;;;;4976543;28;20547;-70
2023/06/19 16:25:00;;;;;;;3.15;2.95;;;30.20;35.30;;;;;;4975694;28;20218;-70
2023/06/19 16:27:27;;;;;;;3.80;2.90;;;30.10;35.50;;;;;;4975702;28;20207;-69
2023/06/19 16:29:55;;;;;;;3.15;3.00;;;30.10;35.30;;;;;;4976414;28;20227;-70
2023/06/19 16:32:22;;;;;;;3.13;3.03;;;30.00;34.60;;;;;;4975641;28;20233;-70
2023/06/19 16:34:49;;;;;;;2.58;2.47;;;30.00;35.50;;;;;;4976166;28;20208;-71
2023/06/19 16:37:15;;;;;;;3.00;2.88;;;30.00;35.30;;;;;;4976667;28;20574;-73
2023/06/19 16:39:42;;;;;;;3.10;3.00;;;30.00;35.60;;;;;;4977801;28;20231;-73
2023/06/19 16:42:09;;;;;;;2.80;2.70;;;29.90;34.90;;;;;;4977453;28;20203;-74
2023/06/19 16:44:37;;;;;;;3.28;3.03;;;29.90;35.30;;;;;;4977393;28;20218;-72
2023/06/19 16:47:05;;;;;;;3.67;3.03;;;29.70;35.10;;;;;;4977329;28;20226;-73
2023/06/19 16:49:32;;;;;;;3.45;3.25;;;29.70;35.60;;;;;;4977717;28;20230;-73
2023/06/19 16:51:59;;;;;;;3.30;3.10;;;29.70;36.00;;;;;;4977959;28;20199;-74
2023/06/19 16:54:25;;;;;;;3.42;3.22;;;29.60;36.20;;;;;;4978395;28;20194;-73
2023/06/19 16:56:52;;;;;;;3.58;3.38;;;29.50;36.10;;;;;;4976668;28;20569;-73
2023/06/19 16:59:19;;;;;;;2.90;2.80;;;29.30;36.40;;;;;;4977892;28;20234;-72
2023/06/19 17:01:46;;;;;;;3.67;3.40;;;29.20;37.20;;;;;;4979741;28;20585;-72
2023/06/19 17:04:14;;;;;;;3.22;3.10;;;29.20;37.50;;;;;;4978699;28;20210;-72
2023/06/19 17:06:40;;;;;;;3.33;3.13;;;29.10;37.90;;;;;;4978501;28;20198;-71
2023/06/19 17:09:07;;;;;;;3.70;3.50;;;28.90;38.10;;;;;;4979356;28;20309;-73
2023/06/19 17:11:34;;;;;;;3.58;3.38;;;28.70;38.50;;;;;;4980149;28;20206;-72
2023/06/19 17:14:01;;;;;;;3.70;3.50;;;28.60;38.70;;;;;;4976700;28;20206;-72
2023/06/19 17:16:27;;;;;;;3.65;3.45;;;28.60;39.10;;;;;;4975662;28;20221;-72
2023/06/19 17:18:54;;;;;;;3.45;3.25;;;28.50;39.20;;;;;;4975530;28;20222;-74
2023/06/19 17:21:22;;;;;;;3.17;3.00;;;28.60;39.60;;;;;;4976513;28;20213;-72
2023/06/19 17:23:49;;;;;;;3.50;3.30;;;28.60;39.70;;;;;;4976050;28;20207;-72
2023/06/19 17:26:15;;;;;;;3.50;3.30;;;28.70;39.60;;;;;;4977149;28;20626;-73
2023/06/19 17:28:42;;;;;;;3.42;3.22;;;28.70;39.90;;;;;;4981046;28;20226;-73
2023/06/19 17:31:09;;;;;;;3.20;3.05;;;28.70;40.10;;;;;;4983152;28;20305;-74
2023/06/19 17:33:35;;;;;;;3.80;3.50;;;28.80;40.40;;;;;;4981496;28;20194;-74
2023/06/19 17:36:02;;;;;;;3.88;3.67;;;28.70;40.70;;;;;;4981119;28;20257;-73
2023/06/19 17:38:30;;;;;;;4.43;4.13;;;28.60;40.70;;;;;;4979897;28;20219;-73
2023/06/19 17:40:57;;;;;;;4.03;3.70;;;28.50;41.20;;;;;;4979315;28;20203;-73
2023/06/19 17:43:24;;;;;;;4.28;3.90;;;28.30;42.90;;;;;;4979071;28;20587;-74
2023/06/19 17:45:50;;;;;;;4.60;4.40;;;28.10;43.60;;;;;;4978726;28;20219;-73
2023/06/19 17:48:17;;;;;;;5.13;4.32;;;27.90;44.60;;;;;;4978293;28;20741;-73
2023/06/19 17:50:44;;;;;;;4.78;4.47;;;27.80;45.60;;;;;;4978663;28;20215;-73
2023/06/19 17:53:11;;;;;;;4.57;4.30;;;27.60;46.60;;;;;;4978327;28;20685;-73
2023/06/19 17:55:40;;;;;;;4.50;4.30;;;27.50;47.80;;;;;;4978368;28;20190;-72
2023/06/19 17:58:07;;;;;;;4.78;4.45;;;27.40;48.50;;;;;;4978326;28;20203;-73
2023/06/19 18:00:34;;;;;;;4.40;4.00;;;27.30;49.70;;;;;;4977745;28;20207;-73
2023/06/19 18:03:01;;;;;;;5.13;4.72;;;27.30;50.00;;;;;;4977957;28;20214;-72
2023/06/19 18:05:29;;;;;;;5.00;4.70;;;27.20;50.60;;;;;;4977859;28;20589;-73
2023/06/19 18:07:56;;;;;;;4.43;4.13;;;27.20;51.10;;;;;;4977959;28;20250;-73
2023/06/19 18:10:23;;;;;;;4.82;4.43;;;27.20;51.50;;;;;;4977826;28;20309;-73
2023/06/19 18:12:51;;;;;;;5.07;4.78;;;27.20;51.40;;;;;;4977956;28;20247;-73
2023/06/19 18:15:17;;;;;;;4.32;4.03;;;27.10;52.20;;;;;;4977721;28;20232;-73
2023/06/19 18:17:44;;;;;;;4.68;4.38;;;27.10;52.50;;;;;;4978035;28;20218;-72
2023/06/19 18:20:12;;;;;;;4.85;4.55;;;27.10;52.80;;;;;;4977748;28;20237;-75
2023/06/19 18:22:39;;;;;;;4.70;4.40;;;27.10;52.80;;;;;;4977862;28;20230;-73
2023/06/19 18:25:06;;;;;;;4.25;4.05;;;27.00;53.40;;;;;;4977623;28;20289;-72
2023/06/19 18:27:33;;;;;;;4.60;4.30;;;26.90;54.10;;;;;;4977819;28;20194;-73
2023/06/19 18:30:01;;;;;;;4.00;3.80;;;26.80;54.30;;;;;;4978121;28;20230;-72
2023/06/19 18:32:27;;;;;;;4.07;3.88;;;26.80;54.60;;;;;;4977665;28;20202;-69
2023/06/19 18:34:54;;;;;;;4.65;4.35;;;26.60;55.20;;;;;;4977673;28;20207;-69
2023/06/19 18:37:21;;;;;;;5.00;4.70;;;26.60;55.50;;;;;;4976869;28;20203;-69
2023/06/19 18:39:48;;;;;;;4.82;4.53;;;26.40;55.90;;;;;;4976927;28;20219;-69
2023/06/19 18:42:15;;;;;;;4.25;3.95;;;26.30;56.80;;;;;;4977310;28;20693;-68
2023/06/19 18:44:41;;;;;;;3.88;3.67;;;26.20;57.80;;;;;;4977602;28;20605;-69
2023/06/19 18:47:09;;;;;;;3.47;3.38;;;26.10;58.80;;;;;;4977261;28;20210;-69
2023/06/19 18:49:36;;;;;;;4.20;3.92;;;26.00;59.90;;;;;;4977356;28;20223;-68
2023/06/19 18:52:03;;;;;;;4.15;3.95;;;25.90;61.70;;;;;;4977112;28;20206;-69
2023/06/19 18:54:30;;;;;;;3.60;3.50;;;25.70;64.10;;;;;;4976874;28;20203;-68
2023/06/19 18:56:56;;;;;;;4.00;3.80;;;25.60;67.10;;;;;;4977067;28;20206;-69
2023/06/19 18:59:23;;;;;;;3.45;3.35;;;25.40;69.10;;;;;;4977294;28;20720;-72
2023/06/19 19:01:50;;;;;;;3.90;3.70;;;25.20;71.00;;;;;;4977099;28;20214;-72
2023/06/19 19:04:18;;;;;;;3.90;3.70;;;25.10;73.60;;;;;;4977055;28;20207;-73
2023/06/19 19:06:44;;;;;;;3.95;3.70;;;24.80;76.40;;;;;;4976896;28;20588;-72
2023/06/19 19:09:11;;;;;;;3.97;3.78;;;24.70;79.00;;;;;;4977242;28;20234;-72
2023/06/19 19:11:38;;;;;;;4.22;3.97;;;24.50;81.50;;;;;;4977129;28;20230;-72
2023/06/19 19:14:04;;;;;;;5.65;4.30;;;24.30;83.60;;;;;;4977166;28;20570;-72
2023/06/19 19:16:31;;;;;;;4.20;3.90;;;24.10;85.60;;;;;;4976905;28;20210;-72
2023/06/19 19:18:58;;;;;;;4.10;3.90;;;24.00;87.80;;;;;;4976988;28;20223;-72
2023/06/19 19:21:26;;;;;;;4.63;4.38;;;23.80;90.60;;;;;;4977285;28;20213;-73
2023/06/19 19:23:52;;;;;;;4.40;4.20;;;23.60;91.60;;;;;;4976881;28;20211;-72
2023/06/19 19:26:19;;;;;;;4.80;4.50;;;23.50;93.30;;;;;;4976975;28;20226;-72
2023/06/19 19:28:46;;;;;;;4.82;4.43;;;23.40;94.30;;;;;;4976856;28;20250;-72
2023/06/19 19:31:12;;;;;;;4.40;4.20;;;23.30;95.60;;;;;;4976499;28;20203;-72
2023/06/19 19:33:39;;;;;;;4.53;4.20;;;23.20;96.80;;;;;;4976834;28;20207;-72
2023/06/19 19:36:07;;;;;;;4.63;4.40;;;23.00;98.30;;;;;;4976832;28;20199;-70
2023/06/19 19:38:35;;;;;;;4.57;4.30;;;22.90;99.70;;;;;;4976609;28;20219;-72
2023/06/19 19:41:02;;;;;;;4.32;4.05;;;22.80;99.90;;;;;;4976668;28;20234;-73
2023/06/19 19:43:28;;;;;;;4.38;4.18;;;22.70;99.90;;;;;;4978400;28;20205;-73
2023/06/19 19:45:55;;;;;;;5.20;4.90;;;22.70;99.90;;;;;;4977595;28;20219;-73
2023/06/19 19:48:22;;;;;;;4.80;4.50;;;22.60;99.90;;;;;;4977255;28;20218;-73
2023/06/19 19:50:49;;;;;;;4.90;4.55;;;22.60;99.90;;;;;;4977256;28;20198;-73
2023/06/19 19:53:15;;;;;;;5.45;4.43;;;22.50;99.90;;;;;;4977080;28;20685;-73
2023/06/19 19:55:43;;;;;;;5.70;5.35;;;22.50;99.90;;;;;;4976290;28;20202;-69
2023/06/19 19:58:10;;;;;;;5.50;5.07;;;22.50;99.90;;;;;;4975925;28;20210;-69
2023/06/19 20:00:37;;;;;;;5.47;5.18;;;22.50;99.90;;;;;;4975631;28;20217;-69
2023/06/19 20:03:04;;;;;;;5.85;5.38;;;22.60;99.90;;;;;;4975447;28;20191;-69
2023/06/19 20:05:30;;;;;;;5.50;5.20;;;22.50;99.90;;;;;;4975748;28;20233;-68
2023/06/19 20:07:57;;;;;;;5.40;5.00;;;22.50;99.90;;;;;;4975480;28;20567;-69
2023/06/19 20:10:24;;;;;;;4.60;4.20;;;22.50;99.90;;;;;;4975583;28;20214;-68
2023/06/19 20:12:52;;;;;;;5.03;4.68;;;22.50;99.90;;;;;;4975489;28;20232;-68
2023/06/19 20:15:18;;;;;;;4.75;4.47;;;22.40;99.90;;;;;;4975487;28;20211;-68
2023/06/19 20:17:45;;;;;;;4.80;4.40;;;22.40;99.90;;;;;;4975438;28;20206;-68
2023/06/19 20:20:13;;;;;;;4.35;3.97;;;22.30;99.90;;;;;;4974954;28;20665;-68
2023/06/19 20:22:39;;;;;;;3.85;3.60;;;22.20;99.90;;;;;;4975404;28;20570;-68
2023/06/19 20:25:07;;;;;;;4.07;3.88;;;22.20;99.90;;;;;;4975450;28;20207;-68
2023/06/19 20:27:33;;;;;;;4.25;3.95;;;22.20;99.90;;;;;;4975395;28;20223;-68
2023/06/19 20:30:01;;;;;;;4.50;4.30;;;22.20;99.90;;;;;;4975189;28;20222;-69
2023/06/19 20:32:28;;;;;;;3.90;3.70;;;22.10;99.90;;;;;;4975350;28;20210;-69
2023/06/19 20:34:55;;;;;;;3.83;3.65;;;22.10;99.90;;;;;;4975258;28;20207;-69
2023/06/19 20:37:21;;;;;;;3.38;3.28;;;22.00;99.90;;;;;;4974906;28;20538;-69
2023/06/19 20:39:48;;;;;;;3.33;3.22;;;22.00;99.90;;;;;;4975248;28;20227;-69
2023/06/19 20:42:18;;;;;;;3.13;3.03;;;22.00;99.90;;;;;;4975207;28;20203;-69
2023/06/19 20:44:44;;;;;;;3.20;3.03;;;21.90;99.90;;;;;;4974677;28;20673;-69
2023/06/19 20:47:12;;;;;;;3.42;3.22;;;21.90;99.90;;;;;;4974958;28;20292;-69
2023/06/19 20:49:39;;;;;;;3.58;3.28;;;21.90;99.90;;;;;;4975177;28;20222;-69
2023/06/19 20:52:06;;;;;;;4.75;4.40;;;21.80;99.90;;;;;;4974542;28;20545;-69
2023/06/19 20:54:33;;;;;;;4.25;3.95;;;21.80;99.90;;;;;;4974867;28;20210;-71
2023/06/19 20:57:00;;;;;;;4.03;3.83;;;21.80;99.90;;;;;;4975138;28;20569;-71
2023/06/19 20:59:26;;;;;;;4.22;4.03;;;21.70;99.90;;;;;;4974752;28;20226;-71
2023/06/19 21:01:56;;;;;;;3.97;3.78;;;21.70;99.90;;;;;;4973965;28;20214;-71
2023/06/19 21:04:24;;;;;;;3.55;3.35;;;21.70;99.90;;;;;;4974949;28;20202;-71
2023/06/19 21:06:50;;;;;;;3.78;3.53;;;21.60;99.90;;;;;;4975159;28;20219;-71
2023/06/19 21:09:18;;;;;;;3.28;3.17;;;21.50;99.90;;;;;;4974463;28;20706;-71
2023/06/19 21:11:45;;;;;;;3.40;3.20;;;21.30;99.90;;;;;;4974957;28;20219;-71
2023/06/19 21:14:12;;;;;;;3.50;3.35;;;21.20;99.90;;;;;;4974992;28;20541;-71
2023/06/19 21:16:38;;;;;;;3.40;3.30;;;21.10;99.90;;;;;;4974893;28;20219;-70
2023/06/19 21:19:05;;;;;;;3.35;3.22;;;21.00;99.90;;;;;;4974882;28;20226;-68
